sensor_id;sensor_type;location;lat;lon;timestamp;P1;durP1;ratioP1;P2;durP2;ratioP2
45049;SDS011;61798;48.048;-1.928;2023-04-12T00:01:46;1.08;;;0.30;;
45049;SDS011;61798;48.048;-1.928;2023-04-12T00:03:52;0.30;;;0.30;;
45049;SDS011;61798;48.048;-1.928;2023-04-12T00:05:59;0.57;;;0.47;;
45049;SDS011;61798;48.048;-1.928;2023-04-12T00:08:08;0.50;;;0.30;;
45049;SDS011;61798;48.048;-1.928;2023-04-12T00:10:15;0.85;;;0.40;;
45049;SDS011;61798;48.048;-1.928;2023-04-12T00:12:22;2.58;;;0.70;;
45049;SDS011;61798;48.048;-1.928;2023-04-12T00:14:28;1.52;;;0.50;;
45049;SDS011;61798;48.048;-1.928;2023-04-12T00:16:34;2.58;;;0.70;;
45049;SDS011;61798;48.048;-1.928;2023-04-12T00:18:41;0.73;;;0.60;;
45049;SDS011;61798;48.048;-1.928;2023-04-12T00:20:51;0.98;;;0.57;;
45049;SDS011;61798;48.048;-1.928;2023-04-12T00:22:57;0.82;;;0.50;;
45049;SDS011;61798;48.048;-1.928;2023-04-12T00:25:04;0.95;;;0.40;;
45049;SDS011;61798;48.048;-1.928;2023-04-12T00:27:10;5.10;;;0.50;;
45049;SDS011;61798;48.048;-1.928;2023-04-12T00:29:17;1.13;;;0.47;;
45049;SDS011;61798;48.048;-1.928;2023-04-12T00:31:23;3.58;;;0.60;;
45049;SDS011;61798;48.048;-1.928;2023-04-12T00:33:29;2.53;;;0.55;;
45049;SDS011;61798;48.048;-1.928;2023-04-12T00:35:36;1.13;;;0.60;;
45049;SDS011;61798;48.048;-1.928;2023-04-12T00:37:41;0.45;;;0.40;;
45049;SDS011;61798;48.048;-1.928;2023-04-12T00:39:49;1.42;;;0.65;;
45049;SDS011;61798;48.048;-1.928;2023-04-12T00:41:55;1.48;;;0.40;;
45049;SDS011;61798;48.048;-1.928;2023-04-12T00:44:06;1.02;;;0.63;;
45049;SDS011;61798;48.048;-1.928;2023-04-12T00:46:12;0.40;;;0.40;;
45049;SDS011;61798;48.048;-1.928;2023-04-12T00:48:18;3.13;;;0.60;;
45049;SDS011;61798;48.048;-1.928;2023-04-12T00:50:25;2.20;;;0.50;;
45049;SDS011;61798;48.048;-1.928;2023-04-12T00:52:31;2.58;;;0.45;;
45049;SDS011;61798;48.048;-1.928;2023-04-12T00:54:40;1.33;;;0.47;;
45049;SDS011;61798;48.048;-1.928;2023-04-12T00:56:47;1.00;;;0.50;;
45049;SDS011;61798;48.048;-1.928;2023-04-12T00:58:54;1.13;;;0.40;;
45049;SDS011;61798;48.048;-1.928;2023-04-12T01:01:02;1.20;;;0.40;;
45049;SDS011;61798;48.048;-1.928;2023-04-12T01:03:08;0.63;;;0.50;;
45049;SDS011;61798;48.048;-1.928;2023-04-12T01:05:16;1.90;;;0.40;;
45049;SDS011;61798;48.048;-1.928;2023-04-12T01:11:50;2.95;;;0.60;;
45049;SDS011;61798;48.048;-1.928;2023-04-12T01:14:36;0.82;;;0.40;;
45049;SDS011;61798;48.048;-1.928;2023-04-12T01:16:57;0.73;;;0.40;;
45049;SDS011;61798;48.048;-1.928;2023-04-12T01:21:47;1.17;;;0.47;;
45049;SDS011;61798;48.048;-1.928;2023-04-12T01:28:43;2.22;;;0.70;;
45049;SDS011;61798;48.048;-1.928;2023-04-12T01:30:51;4.85;;;0.60;;
45049;SDS011;61798;48.048;-1.928;2023-04-12T01:32:59;5.30;;;0.50;;
45049;SDS011;61798;48.048;-1.928;2023-04-12T01:35:09;0.75;;;0.40;;
45049;SDS011;61798;48.048;-1.928;2023-04-12T01:37:15;0.50;;;0.50;;
45049;SDS011;61798;48.048;-1.928;2023-04-12T01:39:24;1.35;;;0.50;;
45049;SDS011;61798;48.048;-1.928;2023-04-12T01:41:32;2.35;;;0.50;;
45049;SDS011;61798;48.048;-1.928;2023-04-12T01:43:42;1.15;;;0.40;;
45049;SDS011;61798;48.048;-1.928;2023-04-12T01:45:50;1.75;;;0.40;;
45049;SDS011;61798;48.048;-1.928;2023-04-12T01:47:56;3.35;;;0.52;;
45049;SDS011;61798;48.048;-1.928;2023-04-12T01:52:25;1.30;;;0.47;;
45049;SDS011;61798;48.048;-1.928;2023-04-12T01:54:39;0.63;;;0.52;;
45049;SDS011;61798;48.048;-1.928;2023-04-12T01:56:49;1.23;;;0.40;;
45049;SDS011;61798;48.048;-1.928;2023-04-12T01:58:59;4.03;;;0.65;;
45049;SDS011;61798;48.048;-1.928;2023-04-12T02:01:06;1.25;;;0.73;;
45049;SDS011;61798;48.048;-1.928;2023-04-12T02:03:14;7.47;;;0.90;;
45049;SDS011;61798;48.048;-1.928;2023-04-12T02:05:22;2.25;;;0.55;;
45049;SDS011;61798;48.048;-1.928;2023-04-12T02:07:30;3.63;;;1.00;;
45049;SDS011;61798;48.048;-1.928;2023-04-12T02:09:36;2.13;;;0.70;;
45049;SDS011;61798;48.048;-1.928;2023-04-12T02:11:47;3.90;;;0.52;;
45049;SDS011;61798;48.048;-1.928;2023-04-12T02:13:54;1.02;;;0.50;;
45049;SDS011;61798;48.048;-1.928;2023-04-12T02:16:00;0.82;;;0.50;;
45049;SDS011;61798;48.048;-1.928;2023-04-12T02:18:06;1.67;;;0.57;;
45049;SDS011;61798;48.048;-1.928;2023-04-12T02:20:13;1.95;;;0.45;;
45049;SDS011;61798;48.048;-1.928;2023-04-12T02:22:22;0.98;;;0.50;;
45049;SDS011;61798;48.048;-1.928;2023-04-12T02:24:28;2.42;;;0.50;;
45049;SDS011;61798;48.048;-1.928;2023-04-12T02:26:35;2.65;;;0.50;;
45049;SDS011;61798;48.048;-1.928;2023-04-12T02:28:43;1.23;;;0.60;;
45049;SDS011;61798;48.048;-1.928;2023-04-12T02:30:50;4.75;;;0.60;;
45049;SDS011;61798;48.048;-1.928;2023-04-12T02:32:58;1.35;;;0.85;;
45049;SDS011;61798;48.048;-1.928;2023-04-12T02:35:05;0.70;;;0.40;;
45049;SDS011;61798;48.048;-1.928;2023-04-12T02:37:12;2.80;;;0.50;;
45049;SDS011;61798;48.048;-1.928;2023-04-12T02:39:23;1.13;;;0.60;;
45049;SDS011;61798;48.048;-1.928;2023-04-12T02:41:29;3.42;;;0.60;;
45049;SDS011;61798;48.048;-1.928;2023-04-12T02:43:35;3.60;;;0.70;;
45049;SDS011;61798;48.048;-1.928;2023-04-12T02:45:42;2.28;;;0.55;;
45049;SDS011;61798;48.048;-1.928;2023-04-12T02:47:47;1.48;;;0.60;;
45049;SDS011;61798;48.048;-1.928;2023-04-12T02:49:54;1.83;;;0.57;;
45049;SDS011;61798;48.048;-1.928;2023-04-12T02:52:00;2.30;;;0.60;;
45049;SDS011;61798;48.048;-1.928;2023-04-12T02:54:06;1.67;;;0.73;;
45049;SDS011;61798;48.048;-1.928;2023-04-12T02:56:13;1.00;;;0.60;;
45049;SDS011;61798;48.048;-1.928;2023-04-12T02:58:23;2.47;;;0.60;;
45049;SDS011;61798;48.048;-1.928;2023-04-12T03:00:30;1.52;;;0.50;;
45049;SDS011;61798;48.048;-1.928;2023-04-12T03:02:36;4.63;;;0.80;;
45049;SDS011;61798;48.048;-1.928;2023-04-12T03:04:43;3.00;;;0.70;;
45049;SDS011;61798;48.048;-1.928;2023-04-12T03:06:51;1.52;;;0.60;;
45049;SDS011;61798;48.048;-1.928;2023-04-12T03:08:58;1.10;;;0.60;;
45049;SDS011;61798;48.048;-1.928;2023-04-12T03:11:05;3.25;;;0.65;;
45049;SDS011;61798;48.048;-1.928;2023-04-12T03:13:11;2.00;;;0.77;;
45049;SDS011;61798;48.048;-1.928;2023-04-12T03:15:17;3.08;;;0.80;;
45049;SDS011;61798;48.048;-1.928;2023-04-12T03:17:23;3.78;;;0.80;;
45049;SDS011;61798;48.048;-1.928;2023-04-12T03:19:29;2.60;;;0.50;;
45049;SDS011;61798;48.048;-1.928;2023-04-12T03:21:39;1.08;;;0.70;;
45049;SDS011;61798;48.048;-1.928;2023-04-12T03:23:44;2.38;;;0.70;;
45049;SDS011;61798;48.048;-1.928;2023-04-12T03:25:51;2.47;;;0.60;;
45049;SDS011;61798;48.048;-1.928;2023-04-12T03:27:57;3.75;;;1.40;;
45049;SDS011;61798;48.048;-1.928;2023-04-12T03:30:04;7.75;;;1.45;;
45049;SDS011;61798;48.048;-1.928;2023-04-12T03:32:11;2.05;;;0.60;;
45049;SDS011;61798;48.048;-1.928;2023-04-12T03:34:17;3.58;;;0.75;;
45049;SDS011;61798;48.048;-1.928;2023-04-12T03:36:22;2.47;;;0.73;;
45049;SDS011;61798;48.048;-1.928;2023-04-12T03:38:28;3.65;;;0.50;;
45049;SDS011;61798;48.048;-1.928;2023-04-12T03:40:35;3.17;;;0.70;;
45049;SDS011;61798;48.048;-1.928;2023-04-12T03:42:41;2.85;;;0.75;;
45049;SDS011;61798;48.048;-1.928;2023-04-12T03:44:48;1.27;;;0.70;;
45049;SDS011;61798;48.048;-1.928;2023-04-12T03:46:54;2.42;;;0.70;;
45049;SDS011;61798;48.048;-1.928;2023-04-12T03:49:00;1.55;;;0.77;;
45049;SDS011;61798;48.048;-1.928;2023-04-12T03:51:06;1.63;;;0.50;;
45049;SDS011;61798;48.048;-1.928;2023-04-12T03:53:13;3.00;;;0.70;;
45049;SDS011;61798;48.048;-1.928;2023-04-12T03:55:21;3.83;;;0.77;;
45049;SDS011;61798;48.048;-1.928;2023-04-12T03:57:28;0.38;;;0.38;;
45049;SDS011;61798;48.048;-1.928;2023-04-12T03:59:33;2.63;;;1.17;;
45049;SDS011;61798;48.048;-1.928;2023-04-12T04:01:40;11.85;;;2.90;;
45049;SDS011;61798;48.048;-1.928;2023-04-12T04:03:47;10.23;;;3.45;;
45049;SDS011;61798;48.048;-1.928;2023-04-12T04:05:53;12.45;;;3.50;;
45049;SDS011;61798;48.048;-1.928;2023-04-12T04:08:01;5.47;;;1.50;;
45049;SDS011;61798;48.048;-1.928;2023-04-12T04:10:07;3.03;;;1.10;;
45049;SDS011;61798;48.048;-1.928;2023-04-12T04:12:14;4.93;;;0.70;;
45049;SDS011;61798;48.048;-1.928;2023-04-12T04:14:21;3.05;;;0.90;;
45049;SDS011;61798;48.048;-1.928;2023-04-12T04:16:28;2.85;;;0.80;;
45049;SDS011;61798;48.048;-1.928;2023-04-12T04:18:37;7.13;;;0.70;;
45049;SDS011;61798;48.048;-1.928;2023-04-12T04:20:44;2.72;;;1.00;;
45049;SDS011;61798;48.048;-1.928;2023-04-12T04:22:51;4.50;;;0.80;;
45049;SDS011;61798;48.048;-1.928;2023-04-12T04:24:59;3.45;;;0.85;;
45049;SDS011;61798;48.048;-1.928;2023-04-12T04:27:09;4.88;;;0.80;;
45049;SDS011;61798;48.048;-1.928;2023-04-12T04:29:16;1.50;;;0.60;;
45049;SDS011;61798;48.048;-1.928;2023-04-12T04:31:23;2.53;;;1.00;;
45049;SDS011;61798;48.048;-1.928;2023-04-12T04:33:32;0.70;;;0.70;;
45049;SDS011;61798;48.048;-1.928;2023-04-12T04:35:39;1.75;;;0.80;;
45049;SDS011;61798;48.048;-1.928;2023-04-12T04:37:46;2.67;;;0.88;;
45049;SDS011;61798;48.048;-1.928;2023-04-12T04:39:54;3.30;;;0.70;;
45049;SDS011;61798;48.048;-1.928;2023-04-12T04:41:59;1.60;;;0.60;;
45049;SDS011;61798;48.048;-1.928;2023-04-12T04:44:07;2.88;;;0.73;;
45049;SDS011;61798;48.048;-1.928;2023-04-12T04:46:17;1.50;;;0.70;;
45049;SDS011;61798;48.048;-1.928;2023-04-12T04:48:28;4.47;;;0.88;;
45049;SDS011;61798;48.048;-1.928;2023-04-12T04:50:35;2.80;;;0.73;;
45049;SDS011;61798;48.048;-1.928;2023-04-12T04:52:44;5.65;;;0.90;;
45049;SDS011;61798;48.048;-1.928;2023-04-12T04:54:53;3.17;;;0.90;;
45049;SDS011;61798;48.048;-1.928;2023-04-12T04:57:03;3.30;;;0.80;;
45049;SDS011;61798;48.048;-1.928;2023-04-12T04:59:12;1.77;;;0.70;;
45049;SDS011;61798;48.048;-1.928;2023-04-12T05:01:19;6.13;;;1.00;;
45049;SDS011;61798;48.048;-1.928;2023-04-12T05:03:47;1.63;;;1.10;;
45049;SDS011;61798;48.048;-1.928;2023-04-12T05:05:56;1.42;;;0.70;;
45049;SDS011;61798;48.048;-1.928;2023-04-12T05:08:03;3.33;;;0.70;;
45049;SDS011;61798;48.048;-1.928;2023-04-12T05:10:11;3.10;;;0.85;;
45049;SDS011;61798;48.048;-1.928;2023-04-12T05:12:18;1.33;;;0.80;;
45049;SDS011;61798;48.048;-1.928;2023-04-12T05:14:25;0.95;;;0.73;;
45049;SDS011;61798;48.048;-1.928;2023-04-12T05:16:31;5.07;;;0.75;;
45049;SDS011;61798;48.048;-1.928;2023-04-12T05:18:36;2.35;;;0.60;;
45049;SDS011;61798;48.048;-1.928;2023-04-12T05:20:44;3.05;;;0.90;;
45049;SDS011;61798;48.048;-1.928;2023-04-12T05:22:50;1.52;;;0.80;;
45049;SDS011;61798;48.048;-1.928;2023-04-12T05:24:57;3.50;;;0.85;;
45049;SDS011;61798;48.048;-1.928;2023-04-12T05:27:03;4.50;;;0.63;;
45049;SDS011;61798;48.048;-1.928;2023-04-12T05:29:10;3.28;;;1.08;;
45049;SDS011;61798;48.048;-1.928;2023-04-12T05:31:16;1.38;;;0.60;;
45049;SDS011;61798;48.048;-1.928;2023-04-12T05:33:22;3.38;;;0.80;;
45049;SDS011;61798;48.048;-1.928;2023-04-12T05:35:29;2.50;;;1.00;;
45049;SDS011;61798;48.048;-1.928;2023-04-12T05:37:35;1.52;;;1.00;;
45049;SDS011;61798;48.048;-1.928;2023-04-12T05:39:42;1.85;;;1.13;;
45049;SDS011;61798;48.048;-1.928;2023-04-12T05:41:48;1.45;;;0.73;;
45049;SDS011;61798;48.048;-1.928;2023-04-12T05:43:54;3.03;;;0.93;;
45049;SDS011;61798;48.048;-1.928;2023-04-12T05:46:01;2.97;;;0.90;;
45049;SDS011;61798;48.048;-1.928;2023-04-12T05:48:08;4.75;;;1.10;;
45049;SDS011;61798;48.048;-1.928;2023-04-12T05:50:15;3.45;;;1.08;;
45049;SDS011;61798;48.048;-1.928;2023-04-12T05:52:22;1.77;;;0.65;;
45049;SDS011;61798;48.048;-1.928;2023-04-12T05:54:28;1.83;;;0.80;;
45049;SDS011;61798;48.048;-1.928;2023-04-12T05:56:37;6.22;;;1.23;;
45049;SDS011;61798;48.048;-1.928;2023-04-12T05:58:43;1.50;;;0.70;;
45049;SDS011;61798;48.048;-1.928;2023-04-12T06:00:50;2.38;;;1.02;;
45049;SDS011;61798;48.048;-1.928;2023-04-12T06:02:59;1.98;;;0.98;;
45049;SDS011;61798;48.048;-1.928;2023-04-12T06:05:06;6.28;;;1.33;;
45049;SDS011;61798;48.048;-1.928;2023-04-12T06:07:14;8.00;;;1.38;;
45049;SDS011;61798;48.048;-1.928;2023-04-12T06:09:24;3.83;;;1.35;;
45049;SDS011;61798;48.048;-1.928;2023-04-12T06:11:32;5.57;;;1.85;;
45049;SDS011;61798;48.048;-1.928;2023-04-12T06:13:39;3.08;;;1.23;;
45049;SDS011;61798;48.048;-1.928;2023-04-12T06:15:46;3.92;;;1.30;;
45049;SDS011;61798;48.048;-1.928;2023-04-12T06:17:52;2.90;;;1.10;;
45049;SDS011;61798;48.048;-1.928;2023-04-12T06:19:58;4.55;;;1.30;;
45049;SDS011;61798;48.048;-1.928;2023-04-12T06:22:05;3.10;;;1.48;;
45049;SDS011;61798;48.048;-1.928;2023-04-12T06:24:12;5.82;;;1.30;;
45049;SDS011;61798;48.048;-1.928;2023-04-12T06:26:19;4.70;;;1.65;;
45049;SDS011;61798;48.048;-1.928;2023-04-12T06:28:26;2.90;;;1.40;;
45049;SDS011;61798;48.048;-1.928;2023-04-12T06:30:33;9.60;;;1.35;;
45049;SDS011;61798;48.048;-1.928;2023-04-12T06:32:40;3.10;;;1.08;;
45049;SDS011;61798;48.048;-1.928;2023-04-12T06:34:47;8.30;;;1.25;;
45049;SDS011;61798;48.048;-1.928;2023-04-12T06:36:54;3.78;;;0.93;;
45049;SDS011;61798;48.048;-1.928;2023-04-12T06:39:03;2.15;;;1.17;;
45049;SDS011;61798;48.048;-1.928;2023-04-12T06:41:10;4.28;;;1.08;;
45049;SDS011;61798;48.048;-1.928;2023-04-12T06:43:17;4.47;;;1.02;;
45049;SDS011;61798;48.048;-1.928;2023-04-12T06:45:25;3.03;;;1.58;;
45049;SDS011;61798;48.048;-1.928;2023-04-12T06:47:33;2.22;;;1.10;;
45049;SDS011;61798;48.048;-1.928;2023-04-12T06:49:41;4.97;;;1.00;;
45049;SDS011;61798;48.048;-1.928;2023-04-12T06:51:49;4.70;;;0.90;;
45049;SDS011;61798;48.048;-1.928;2023-04-12T06:53:56;1.70;;;1.02;;
45049;SDS011;61798;48.048;-1.928;2023-04-12T06:56:02;1.58;;;0.90;;
45049;SDS011;61798;48.048;-1.928;2023-04-12T06:58:13;2.85;;;1.00;;
45049;SDS011;61798;48.048;-1.928;2023-04-12T07:00:20;1.67;;;1.05;;
45049;SDS011;61798;48.048;-1.928;2023-04-12T07:02:34;1.33;;;0.80;;
45049;SDS011;61798;48.048;-1.928;2023-04-12T07:04:43;4.35;;;0.80;;
45049;SDS011;61798;48.048;-1.928;2023-04-12T07:06:49;2.72;;;1.08;;
45049;SDS011;61798;48.048;-1.928;2023-04-12T07:08:56;1.08;;;0.80;;
45049;SDS011;61798;48.048;-1.928;2023-04-12T07:11:07;3.85;;;1.02;;
45049;SDS011;61798;48.048;-1.928;2023-04-12T07:13:18;6.05;;;1.00;;
45049;SDS011;61798;48.048;-1.928;2023-04-12T07:15:27;6.53;;;1.10;;
45049;SDS011;61798;48.048;-1.928;2023-04-12T07:17:35;2.17;;;1.15;;
45049;SDS011;61798;48.048;-1.928;2023-04-12T07:19:47;4.55;;;1.10;;
45049;SDS011;61798;48.048;-1.928;2023-04-12T07:21:56;3.50;;;1.23;;
45049;SDS011;61798;48.048;-1.928;2023-04-12T07:24:04;3.60;;;1.20;;
45049;SDS011;61798;48.048;-1.928;2023-04-12T07:26:15;2.17;;;1.02;;
45049;SDS011;61798;48.048;-1.928;2023-04-12T07:28:23;2.60;;;0.82;;
45049;SDS011;61798;48.048;-1.928;2023-04-12T07:30:32;1.58;;;0.80;;
45049;SDS011;61798;48.048;-1.928;2023-04-12T07:32:42;2.92;;;0.88;;
45049;SDS011;61798;48.048;-1.928;2023-04-12T07:34:52;2.20;;;0.75;;
45049;SDS011;61798;48.048;-1.928;2023-04-12T07:37:02;1.20;;;0.90;;
45049;SDS011;61798;48.048;-1.928;2023-04-12T07:39:10;3.95;;;1.05;;
45049;SDS011;61798;48.048;-1.928;2023-04-12T07:41:18;3.53;;;1.13;;
45049;SDS011;61798;48.048;-1.928;2023-04-12T07:43:32;3.63;;;0.70;;
45049;SDS011;61798;48.048;-1.928;2023-04-12T07:45:42;2.90;;;0.90;;
45049;SDS011;61798;48.048;-1.928;2023-04-12T07:47:48;2.83;;;0.80;;
45049;SDS011;61798;48.048;-1.928;2023-04-12T07:50:00;2.25;;;1.00;;
45049;SDS011;61798;48.048;-1.928;2023-04-12T07:52:11;1.77;;;0.90;;
45049;SDS011;61798;48.048;-1.928;2023-04-12T07:54:18;3.40;;;1.00;;
45049;SDS011;61798;48.048;-1.928;2023-04-12T07:56:32;2.28;;;0.90;;
45049;SDS011;61798;48.048;-1.928;2023-04-12T07:58:40;2.95;;;1.02;;
45049;SDS011;61798;48.048;-1.928;2023-04-12T08:00:47;1.05;;;0.90;;
45049;SDS011;61798;48.048;-1.928;2023-04-12T08:02:55;3.30;;;0.90;;
45049;SDS011;61798;48.048;-1.928;2023-04-12T08:05:02;1.92;;;0.98;;
45049;SDS011;61798;48.048;-1.928;2023-04-12T08:07:10;1.65;;;0.70;;
45049;SDS011;61798;48.048;-1.928;2023-04-12T08:09:17;3.10;;;0.80;;
45049;SDS011;61798;48.048;-1.928;2023-04-12T08:11:24;1.20;;;0.95;;
45049;SDS011;61798;48.048;-1.928;2023-04-12T08:13:30;2.72;;;0.93;;
45049;SDS011;61798;48.048;-1.928;2023-04-12T08:15:39;3.08;;;0.80;;
45049;SDS011;61798;48.048;-1.928;2023-04-12T08:17:50;1.63;;;0.70;;
45049;SDS011;61798;48.048;-1.928;2023-04-12T08:20:03;4.60;;;0.80;;
45049;SDS011;61798;48.048;-1.928;2023-04-12T08:22:11;4.30;;;0.80;;
45049;SDS011;61798;48.048;-1.928;2023-04-12T08:24:19;1.63;;;0.70;;
45049;SDS011;61798;48.048;-1.928;2023-04-12T08:26:27;0.85;;;0.63;;
45049;SDS011;61798;48.048;-1.928;2023-04-12T08:28:45;2.45;;;0.75;;
45049;SDS011;61798;48.048;-1.928;2023-04-12T08:30:54;2.55;;;0.80;;
45049;SDS011;61798;48.048;-1.928;2023-04-12T08:33:09;1.10;;;0.80;;
45049;SDS011;61798;48.048;-1.928;2023-04-12T08:35:17;1.15;;;0.63;;
45049;SDS011;61798;48.048;-1.928;2023-04-12T08:37:27;1.65;;;0.80;;
45049;SDS011;61798;48.048;-1.928;2023-04-12T08:39:34;5.63;;;0.85;;
45049;SDS011;61798;48.048;-1.928;2023-04-12T08:41:44;2.08;;;1.00;;
45049;SDS011;61798;48.048;-1.928;2023-04-12T08:44:00;1.48;;;0.70;;
45049;SDS011;61798;48.048;-1.928;2023-04-12T08:46:07;3.13;;;0.75;;
45049;SDS011;61798;48.048;-1.928;2023-04-12T08:48:22;5.60;;;1.40;;
45049;SDS011;61798;48.048;-1.928;2023-04-12T08:50:31;2.75;;;0.63;;
45049;SDS011;61798;48.048;-1.928;2023-04-12T08:52:37;0.57;;;0.45;;
45049;SDS011;61798;48.048;-1.928;2023-04-12T08:54:46;1.65;;;0.55;;
45049;SDS011;61798;48.048;-1.928;2023-04-12T08:57:00;1.88;;;0.75;;
45049;SDS011;61798;48.048;-1.928;2023-04-12T08:59:09;1.25;;;0.60;;
45049;SDS011;61798;48.048;-1.928;2023-04-12T09:01:26;2.20;;;0.60;;
45049;SDS011;61798;48.048;-1.928;2023-04-12T09:03:33;3.33;;;0.50;;
45049;SDS011;61798;48.048;-1.928;2023-04-12T09:05:42;2.33;;;0.32;;
45049;SDS011;61798;48.048;-1.928;2023-04-12T09:07:49;3.78;;;0.47;;
45049;SDS011;61798;48.048;-1.928;2023-04-12T09:09:56;1.42;;;0.80;;
45049;SDS011;61798;48.048;-1.928;2023-04-12T09:12:07;3.25;;;0.75;;
45049;SDS011;61798;48.048;-1.928;2023-04-12T09:14:22;2.67;;;0.70;;
45049;SDS011;61798;48.048;-1.928;2023-04-12T09:16:36;6.47;;;0.60;;
45049;SDS011;61798;48.048;-1.928;2023-04-12T09:18:48;2.63;;;0.60;;
45049;SDS011;61798;48.048;-1.928;2023-04-12T09:21:30;2.17;;;0.77;;
45049;SDS011;61798;48.048;-1.928;2023-04-12T09:23:28;2.65;;;0.80;;
45049;SDS011;61798;48.048;-1.928;2023-04-12T09:25:36;6.05;;;0.88;;
45049;SDS011;61798;48.048;-1.928;2023-04-12T09:27:49;3.53;;;0.80;;
45049;SDS011;61798;48.048;-1.928;2023-04-12T09:30:07;3.10;;;0.90;;
45049;SDS011;61798;48.048;-1.928;2023-04-12T09:32:13;7.30;;;0.80;;
45049;SDS011;61798;48.048;-1.928;2023-04-12T09:34:21;4.70;;;1.00;;
45049;SDS011;61798;48.048;-1.928;2023-04-12T09:36:35;2.53;;;0.77;;
45049;SDS011;61798;48.048;-1.928;2023-04-12T09:38:56;5.10;;;1.15;;
45049;SDS011;61798;48.048;-1.928;2023-04-12T09:41:39;6.38;;;0.80;;
45049;SDS011;61798;48.048;-1.928;2023-04-12T09:43:38;7.10;;;1.02;;
45049;SDS011;61798;48.048;-1.928;2023-04-12T09:45:45;1.95;;;1.02;;
45049;SDS011;61798;48.048;-1.928;2023-04-12T09:47:51;5.57;;;0.90;;
45049;SDS011;61798;48.048;-1.928;2023-04-12T09:49:58;4.40;;;0.90;;
45049;SDS011;61798;48.048;-1.928;2023-04-12T09:52:06;9.95;;;0.93;;
45049;SDS011;61798;48.048;-1.928;2023-04-12T09:54:14;4.03;;;0.65;;
45049;SDS011;61798;48.048;-1.928;2023-04-12T09:56:20;6.40;;;1.02;;
45049;SDS011;61798;48.048;-1.928;2023-04-12T09:58:30;2.88;;;0.70;;
45049;SDS011;61798;48.048;-1.928;2023-04-12T10:00:36;1.88;;;0.82;;
45049;SDS011;61798;48.048;-1.928;2023-04-12T10:02:45;3.80;;;0.80;;
45049;SDS011;61798;48.048;-1.928;2023-04-12T10:04:52;5.75;;;1.10;;
45049;SDS011;61798;48.048;-1.928;2023-04-12T10:07:00;4.40;;;0.50;;
45049;SDS011;61798;48.048;-1.928;2023-04-12T10:09:06;2.42;;;1.02;;
45049;SDS011;61798;48.048;-1.928;2023-04-12T10:11:13;3.70;;;0.60;;
45049;SDS011;61798;48.048;-1.928;2023-04-12T10:13:20;7.45;;;1.20;;
45049;SDS011;61798;48.048;-1.928;2023-04-12T10:15:28;4.88;;;0.80;;
45049;SDS011;61798;48.048;-1.928;2023-04-12T10:17:33;4.13;;;0.82;;
45049;SDS011;61798;48.048;-1.928;2023-04-12T10:19:41;5.03;;;0.85;;
45049;SDS011;61798;48.048;-1.928;2023-04-12T10:21:48;7.13;;;1.27;;
45049;SDS011;61798;48.048;-1.928;2023-04-12T10:23:56;2.95;;;0.70;;
45049;SDS011;61798;48.048;-1.928;2023-04-12T10:26:02;4.03;;;0.70;;
45049;SDS011;61798;48.048;-1.928;2023-04-12T10:28:18;4.47;;;1.10;;
45049;SDS011;61798;48.048;-1.928;2023-04-12T10:30:33;4.22;;;0.63;;
45049;SDS011;61798;48.048;-1.928;2023-04-12T10:32:38;3.53;;;1.00;;
45049;SDS011;61798;48.048;-1.928;2023-04-12T10:34:56;5.88;;;1.38;;
45049;SDS011;61798;48.048;-1.928;2023-04-12T10:37:03;1.95;;;0.57;;
45049;SDS011;61798;48.048;-1.928;2023-04-12T10:39:10;1.98;;;0.70;;
45049;SDS011;61798;48.048;-1.928;2023-04-12T10:41:19;1.83;;;0.70;;
45049;SDS011;61798;48.048;-1.928;2023-04-12T10:43:26;4.97;;;0.77;;
45049;SDS011;61798;48.048;-1.928;2023-04-12T10:45:35;4.18;;;0.70;;
45049;SDS011;61798;48.048;-1.928;2023-04-12T10:52:30;5.38;;;0.80;;
45049;SDS011;61798;48.048;-1.928;2023-04-12T10:54:37;5.22;;;1.10;;
45049;SDS011;61798;48.048;-1.928;2023-04-12T10:56:44;7.00;;;1.00;;
45049;SDS011;61798;48.048;-1.928;2023-04-12T11:03:06;3.20;;;0.70;;
45049;SDS011;61798;48.048;-1.928;2023-04-12T11:05:15;2.72;;;1.25;;
45049;SDS011;61798;48.048;-1.928;2023-04-12T11:07:32;4.93;;;0.73;;
45049;SDS011;61798;48.048;-1.928;2023-04-12T11:09:45;4.05;;;0.88;;
45049;SDS011;61798;48.048;-1.928;2023-04-12T11:14:15;6.47;;;0.68;;
45049;SDS011;61798;48.048;-1.928;2023-04-12T11:16:23;3.67;;;0.70;;
45049;SDS011;61798;48.048;-1.928;2023-04-12T11:18:33;2.00;;;1.15;;
45049;SDS011;61798;48.048;-1.928;2023-04-12T11:20:41;3.10;;;0.60;;
45049;SDS011;61798;48.048;-1.928;2023-04-12T11:22:48;1.10;;;0.65;;
45049;SDS011;61798;48.048;-1.928;2023-04-12T11:24:59;3.33;;;0.60;;
45049;SDS011;61798;48.048;-1.928;2023-04-12T11:27:06;3.75;;;0.80;;
45049;SDS011;61798;48.048;-1.928;2023-04-12T11:29:12;3.13;;;0.60;;
45049;SDS011;61798;48.048;-1.928;2023-04-12T11:31:22;2.20;;;0.63;;
45049;SDS011;61798;48.048;-1.928;2023-04-12T11:33:39;5.82;;;1.00;;
45049;SDS011;61798;48.048;-1.928;2023-04-12T11:35:47;3.28;;;0.80;;
45049;SDS011;61798;48.048;-1.928;2023-04-12T11:37:57;5.60;;;0.68;;
45049;SDS011;61798;48.048;-1.928;2023-04-12T11:40:04;1.83;;;0.80;;
45049;SDS011;61798;48.048;-1.928;2023-04-12T11:42:14;2.90;;;0.68;;
45049;SDS011;61798;48.048;-1.928;2023-04-12T11:44:23;4.63;;;0.82;;
45049;SDS011;61798;48.048;-1.928;2023-04-12T11:46:33;1.55;;;0.68;;
45049;SDS011;61798;48.048;-1.928;2023-04-12T11:48:43;1.20;;;0.47;;
45049;SDS011;61798;48.048;-1.928;2023-04-12T11:50:50;4.35;;;0.80;;
45049;SDS011;61798;48.048;-1.928;2023-04-12T11:53:08;2.28;;;0.70;;
45049;SDS011;61798;48.048;-1.928;2023-04-12T11:55:18;1.67;;;0.70;;
45049;SDS011;61798;48.048;-1.928;2023-04-12T11:57:25;3.95;;;0.70;;
45049;SDS011;61798;48.048;-1.928;2023-04-12T11:59:34;3.70;;;0.70;;
45049;SDS011;61798;48.048;-1.928;2023-04-12T12:01:43;1.60;;;0.80;;
45049;SDS011;61798;48.048;-1.928;2023-04-12T12:03:53;2.33;;;0.70;;
45049;SDS011;61798;48.048;-1.928;2023-04-12T12:06:00;8.20;;;1.10;;
45049;SDS011;61798;48.048;-1.928;2023-04-12T12:08:08;1.95;;;0.70;;
45049;SDS011;61798;48.048;-1.928;2023-04-12T12:10:15;9.07;;;0.80;;
45049;SDS011;61798;48.048;-1.928;2023-04-12T12:12:23;3.55;;;1.05;;
45049;SDS011;61798;48.048;-1.928;2023-04-12T12:14:32;2.83;;;0.73;;
45049;SDS011;61798;48.048;-1.928;2023-04-12T12:16:41;2.42;;;0.70;;
45049;SDS011;61798;48.048;-1.928;2023-04-12T12:18:48;4.05;;;0.90;;
45049;SDS011;61798;48.048;-1.928;2023-04-12T12:20:54;1.88;;;0.63;;
45049;SDS011;61798;48.048;-1.928;2023-04-12T12:23:01;2.05;;;0.60;;
45049;SDS011;61798;48.048;-1.928;2023-04-12T12:25:08;4.55;;;0.85;;
45049;SDS011;61798;48.048;-1.928;2023-04-12T12:27:23;2.50;;;0.60;;
45049;SDS011;61798;48.048;-1.928;2023-04-12T12:29:39;2.28;;;0.60;;
45049;SDS011;61798;48.048;-1.928;2023-04-12T12:31:46;3.67;;;0.85;;
45049;SDS011;61798;48.048;-1.928;2023-04-12T12:33:55;4.55;;;0.90;;
45049;SDS011;61798;48.048;-1.928;2023-04-12T12:36:02;6.22;;;0.80;;
45049;SDS011;61798;48.048;-1.928;2023-04-12T12:38:10;5.28;;;0.80;;
45049;SDS011;61798;48.048;-1.928;2023-04-12T12:40:17;5.82;;;1.15;;
45049;SDS011;61798;48.048;-1.928;2023-04-12T12:42:26;3.45;;;0.70;;
45049;SDS011;61798;48.048;-1.928;2023-04-12T12:44:33;4.03;;;0.75;;
45049;SDS011;61798;48.048;-1.928;2023-04-12T12:46:40;2.28;;;0.98;;
45049;SDS011;61798;48.048;-1.928;2023-04-12T12:48:47;3.45;;;0.60;;
45049;SDS011;61798;48.048;-1.928;2023-04-12T12:50:55;1.98;;;0.50;;
45049;SDS011;61798;48.048;-1.928;2023-04-12T12:53:02;3.95;;;0.60;;
45049;SDS011;61798;48.048;-1.928;2023-04-12T12:55:11;9.55;;;0.60;;
45049;SDS011;61798;48.048;-1.928;2023-04-12T12:57:18;3.88;;;0.70;;
45049;SDS011;61798;48.048;-1.928;2023-04-12T12:59:25;7.90;;;1.00;;
45049;SDS011;61798;48.048;-1.928;2023-04-12T13:01:32;3.35;;;0.63;;
45049;SDS011;61798;48.048;-1.928;2023-04-12T13:03:39;2.78;;;0.60;;
45049;SDS011;61798;48.048;-1.928;2023-04-12T13:05:46;4.15;;;0.50;;
45049;SDS011;61798;48.048;-1.928;2023-04-12T13:07:54;5.93;;;0.70;;